Percy Furman

Olheiro-Chefe - Orlando Pirates
6 Ago 2028
Domingo
Processo

Personalidade

Adaptabilidade (13) Ambição (5) Controvérsia (4) Lealdade (15) Pressão (12) Profissionalismo (1) Espírito Esportivo (13) Temperamento (8)

Perfil

Estilo de Treinamento Democrático
Licença Continental C
Determinação 8
Gestão de Pessoas 10
Motivação 11
Disciplina 7
Satisfação no Trabalho
100%
Fadiga
0%
Função Olheiro-Chefe
Salário 33.4K p/s
Contrato 14.03.2030

Desempenho

Comportamento Bom
Eficácia do Treinamento
43%
Desenvolvimento do Jogador
40%
Prevenção de Lesões
45%
Implementação Tática
45%

Eventos Recentes

Participou de uma reunião de recrutamento agora
Recomendou um alvo de transferência agora
Recomendou um alvo de transferência agora
Participou de uma reunião de recrutamento agora
Recomendou um alvo de transferência agora
Recomendou um alvo de transferência agora
Recomendou um alvo de transferência agora
Recomendou um alvo de transferência 7d atrás

Monitorando agora

141
Jogador Clube Status Habilidade Confiança Observado Última observação Último voto
Gomolemo Kekana Maritzburg United Ativo 108 / 121 69% 1 03.07.2028 Aprovar
Jan Bürger Northampton Town Ativo 116 / 119 40% 1 20.06.2028 -
Giovanni Leoni Lincoln City Ativo 152 / 154 40% 1 20.06.2028 -
Reggie Walsh Chelsea Ativo 126 / 132 40% 1 20.06.2028 -
Mduduzi Shabalala Kaizer Chiefs Ativo 119 / 117 69% 1 12.06.2028 Aprovar
Peter Shalulile Mamelodi Sundowns Perdido 130 / 132 69% 1 01.06.2028 -
Dylan Cabral Arsenal Ativo 106 / 98 40% 1 02.01.2028 -
Honest Ahanor Atalanta Ativo 133 / 145 40% 1 02.01.2028 -
Maren Kefas Plateau United Ativo 95 / 99 40% 1 01.01.2028 -
Nicolás Barros Schelotto Gimnasia La Plata Ativo 110 / 133 40% 1 01.01.2028 -
Alex Verón Vélez Ativo 104 / 111 40% 1 31.12.2027 -
Siyabonga Mabena Bidvest Wits Ativo 124 / 132 40% 1 31.12.2027 -
Gideon Manaseh Ikorodu City Ativo 89 / 96 40% 1 10.08.2027 -
Mattia Della Rocca Pontedera Ativo 89 / 101 40% 1 10.08.2027 -
Romelle Donovan Brentford Ativo 130 / 130 40% 3 02.08.2027 -
Ethan Williams Peterborough United Ativo 126 / 120 40% 1 02.08.2027 -
Abdulrahman Hamisu Niger Tornadoes Ativo 92 / 89 40% 1 02.08.2027 -
Erick Dolly Black Aces Ativo 120 / 116 69% 1 01.06.2027 Aprovar
Ousseynou Seck Randers Ativo 105 / 110 40% 7 30.05.2027 -
Will Merry Tranmere Rovers Ativo 75 / 74 40% 5 30.05.2027 -
Fábio Jaló Barnsley Ativo 104 / 111 40% 5 28.05.2027 -
Elijas Gunnergård Ortan Ahrobiznes Ativo 70 / 90 40% 1 28.05.2027 -
Lwanda Mbanjwa Platinum Stars Ativo 92 / 97 40% 9 27.05.2027 -
Njabulo Hlongwane AS Korofina Ativo 71 / 84 40% 6 26.05.2027 -
Ruben Ramos LA Galaxy Ativo 104 / 116 40% 3 26.05.2027 -
Lorenzo De Leo Renate Ativo 93 / 106 40% 1 23.05.2027 -
Mitchel Bakker Modena Ativo 131 / 125 40% 1 23.05.2027 -
Chimobi Igwilo Rangers International Ativo 86 / 86 40% 3 20.05.2027 -
Jeremy van Haalen NEC Ativo 76 / 95 40% 1 20.05.2027 -
Dani Ángel Sampdoria Ativo 99 / 99 40% 1 20.05.2027 -
Nazif Inoussa Benfica Ativo 75 / 78 40% 2 19.05.2027 -
Borna Knezović Casarano Ativo 102 / 110 40% 1 19.05.2027 -
Nicolas Previtali Giana Erminio Ativo 97 / 120 40% 1 19.05.2027 -
Víctor Guzmán Sporting CP Ativo 98 / 89 40% 7 17.05.2027 -
Miloš Jovičić Zabbar St. Patrick Ativo 101 / 97 40% 9 16.05.2027 -
Alen Vukaj Alcione Milano Ativo 82 / 96 40% 2 16.05.2027 -
Hassan Beja AFC Leopards Ativo 82 / 82 40% 3 15.05.2027 -
Ítalo Ural Ativo 112 / 113 40% 1 14.05.2027 -
Ceadach O'Neill Arsenal Ativo 92 / 107 40% 3 10.05.2027 -
Idris Ajiya Nasarawa United Ativo 85 / 95 40% 3 07.05.2027 -
Godbless Ayeke AS Bakaridjan Ativo 72 / 73 40% 4 05.05.2027 -
Mateus Mané Burnley Ativo 132 / 136 40% 3 05.05.2027 -
Ramahlwe Jali Platinum Stars Ativo 113 / 103 40% 1 05.05.2027 -
Joseph Abah Remo Stars Ativo 81 / 96 40% 1 03.05.2027 -
Abdullahi Mohammad Kwara United Ativo 79 / 76 40% 2 01.05.2027 -
Luke Baartman Ajax Cape Town Perdido 100 / 119 40% 4 30.04.2027 -
Sergey Gaiduk Salyut Ativo 81 / 88 40% 3 27.04.2027 -
Michael Adu-Poku Watford Ativo 91 / 95 40% 1 27.04.2027 -
Eseosa Sule West Bromwich Albion Ativo 82 / 104 40% 1 27.04.2027 -
Alexandr Chernikov Krasnodar Ativo 129 / 140 40% 1 23.04.2027 -
Ally Salum Omar Kariobangi Sharks Ativo 71 / 65 40% 1 19.04.2027 -
Nathan Mbala FC Metz Ativo 101 / 90 40% 2 17.04.2027 -
Rafael Moreno Atletico Venezuela Ativo 103 / 126 40% 3 14.04.2027 -
Kirill Cheburakov Rostov Ativo 72 / 82 40% 3 14.04.2027 -
Dilan Neves Benfica Ativo 77 / 80 40% 4 13.04.2027 -
Macaulay Zepa Fulham Ativo 92 / 87 40% 2 13.04.2027 -
Eduardo Lozano Botafogo Ativo 131 / 157 40% 1 12.04.2027 -
Mandla Kekana Ajax Cape Town Ativo 110 / 110 40% 1 10.04.2027 -
Iker Pozo Rodina Ativo 116 / 127 40% 3 09.04.2027 -
Matty Warhurst Manchester City Ativo 85 / 90 40% 3 01.04.2027 -
Rubens Dinamo Moscow Ativo 133 / 117 40% 1 01.04.2027 -
Cameron Gardner Grimsby Town Ativo 75 / 87 40% 2 30.03.2027 -
Stanislav Bukatov Salyut Ativo 71 / 71 40% 1 22.03.2027 -
Goodman Mosele Chippa United Ativo 102 / 105 40% 1 21.03.2027 -
Braiden Graham Everton Ativo 91 / 101 40% 3 18.03.2027 -
Brooklyn Poggenpoel Maritzburg United Ativo 103 / 111 40% 2 15.03.2027 Mais informações
Nathan Dlamini Blackburn Rovers Ativo 85 / 103 40% 1 14.03.2027 -
Ahmed Khaled Paralimni Ativo 101 / 87 40% 1 12.03.2027 -
Charlie Savage Reading Ativo 104 / 111 40% 1 10.03.2027 -
Anton Gurylev Pobeda Ativo 63 / 62 40% 2 09.03.2027 -
Kabiru Abdullahi Barau Ativo 83 / 90 40% 1 09.03.2027 -
Lebogang Manyama SuperSport United Ativo 111 / 119 40% 2 03.03.2027 -
Alex Bangura Middlesbrough Ativo 131 / 111 40% 1 03.03.2027 -
Pavel Maslov Chaika Ativo 115 / 94 40% 1 02.03.2027 -
Bongani Zungu Ajax Cape Town Ativo 128 / 132 69% 12 14.02.2027 Aprovar
Ilyas Ansah Hull City Ativo 133 / 123 40% 1 14.02.2027 -
Ivan Oleinikov Krylya Sovetov Ativo 107 / 112 40% 1 09.02.2027 -
Nikita Krivtsov Krasnodar Ativo 129 / 139 40% 1 08.02.2027 -
Jordan Lotomba Bloemfontein Celtic Ativo 122 / 128 40% 2 06.02.2027 -
Arsen Adamov Akhmat Grozny Ativo 121 / 114 40% 1 27.01.2027 -
Konstantinos Balogiannis Apollon Ativo 109 / 130 40% 1 27.01.2027 -
Wilson Odobert Brighton Ativo 145 / 134 40% 1 01.01.2027 -
Marcelo Allende Mamelodi Sundowns Ativo 131 / 123 40% 4 29.12.2026 -
Deano Van Rooyen SuperSport United Ativo 116 / 117 40% 4 27.12.2026 -
Tyrhys Dolan Espanyol Ativo 130 / 138 40% 3 25.12.2026 -
Teboho Mokoena Mamelodi Sundowns Ativo 133 / 135 40% 2 24.12.2026 -
Oliver Arblaster Sheffield United Ativo 119 / 137 40% 1 23.12.2026 -
Ferland Mendy Real Madrid Ativo 154 / 149 40% 2 20.12.2026 -
Manu Morlanes Mallorca Ativo 139 / 143 40% 3 19.12.2026 -
Reda Khadra Qarabag Ativo 144 / 127 40% 6 18.12.2026 -
Simon Ramabu Polokwane City Ativo 108 / 108 40% 1 17.12.2026 -
Harvey Vale Queens Park Rangers Ativo 111 / 119 40% 2 12.12.2026 -
Yeangel Montero Naxxar Lions Ativo 107 / 109 40% 2 07.12.2026 -
Wesley Tarxien Rainbows Ativo 108 / 106 40% 1 07.12.2026 -
Suleiman Camara Slovan Bratislava Ativo 120 / 122 40% 2 06.12.2026 -
Thulani Mabaso Platinum Stars Ativo 105 / 101 40% 1 06.12.2026 -
Velemseni Ndwandwe Golden Arrows Ativo 115 / 112 40% 1 04.12.2026 -
Gonzalo Gamarra Floriana Ativo 95 / 94 40% 1 02.12.2026 -
Shaft Brewer Valletta Ativo 83 / 82 40% 1 02.12.2026 -
Daniel Harvie Wycombe Wanderers Ativo 111 / 104 40% 1 30.11.2026 -
Femi Seriki Sheffield United Ativo 114 / 126 40% 2 28.11.2026 -
Joe Rothwell Sheffield United Ativo 121 / 112 40% 2 28.11.2026 -
Nduduzo Sibiya Golden Arrows Ativo 108 / 104 40% 2 27.11.2026 -
Luke Molyneux Doncaster Rovers Ativo 125 / 106 40% 3 26.11.2026 -
Fawaaz Basadien Mamelodi Sundowns Ativo 114 / 119 40% 1 25.11.2026 -
Yves Bissouma Tottenham Ativo 146 / 138 40% 4 23.11.2026 -
Hidde ter Avest Oxford United Ativo 123 / 115 40% 2 18.11.2026 -
Jay Matete Milton Keynes Dons Ativo 101 / 124 40% 1 18.11.2026 -
Kyreece Lisbie Colchester United Ativo 104 / 104 40% 1 15.11.2026 -
Hakeem Odoffin Luton Town Ativo 124 / 99 40% 1 15.11.2026 -
Jay Stansfield Birmingham Ativo 116 / 125 40% 2 09.11.2026 -
Leif Davis Ipswich Town Ativo 129 / 135 40% 1 09.11.2026 -
Bernard Tekpetey Ludogorets Ativo 134 / 119 40% 2 06.11.2026 -
Lawrence Ennali Houston Dynamo Ativo 118 / 121 40% 1 03.11.2026 -
Will Hughes Bloemfontein Celtic Ativo 130 / 128 40% 1 03.11.2026 -
Andrei Cordea CFR Cluj Ativo 118 / 130 40% 1 26.10.2026 -
Diego Gómez Brighton Ativo 152 / 133 40% 1 26.10.2026 -
Mariano Bracamonte Deportivo Riestra Ativo 123 / 118 40% 1 22.10.2026 -
Matías Pellegrini Vélez Ativo 129 / 128 40% 1 21.10.2026 -
Iliya Gruev Leeds United Ativo 135 / 133 40% 3 18.10.2026 -
Lucas Souto Defensa y Justicia Ativo 125 / 130 40% 1 17.10.2026 -
Franco Cristaldo Talleres Ativo 114 / 120 40% 2 12.10.2026 -
Daniel Kyerewaa Reading Ativo 118 / 125 40% 1 11.10.2026 -
Edu Expósito Espanyol Ativo 129 / 143 40% 1 10.10.2026 -
Regan Slater Hull City Ativo 121 / 126 40% 1 06.10.2026 -
Connor Barrett Walsall Ativo 105 / 98 40% 1 06.10.2026 -
Maxim De Cuyper Brighton Ativo 133 / 153 40% 3 30.09.2026 -
Jaïro Riedewald Sheffield United Ativo 126 / 126 40% 2 28.09.2026 -
Macaulay Langstaff Millwall Ativo 104 / 107 40% 1 25.09.2026 -
Armstrong Oko-Flex Levski Ativo 108 / 106 40% 1 23.09.2026 -
Matthew Garbett Peterborough United Ativo 100 / 106 40% 1 21.09.2026 -
Jordan Williams Portsmouth Ativo 124 / 114 40% 1 21.09.2026 -
Imran Oulad Omar Dinamo Batumi Ativo 131 / 134 40% 1 17.09.2026 -
Josh Eccles Coventry City Ativo 127 / 115 40% 1 13.09.2026 -
Luca Connell Barnsley Ativo 102 / 125 40% 1 12.09.2026 -
Jamal Lewis Preston Ativo 109 / 102 40% 1 11.09.2026 -
Diego Fagúndez CSKA Moscow Ativo 126 / 121 40% 1 10.09.2026 -
Darren Keet Maritzburg United Ativo 110 / 118 69% 1 17.08.2026 Aprovar
Lungelo Dube Golden Arrows Ativo 96 / 92 69% 1 10.08.2026 Aprovar
Florin Tănase Omonoia Ativo 126 / 124 40% 1 03.08.2026 -
Stanislav Ivanov Arda Ativo 114 / 123 40% 1 03.08.2026 -